Cafunfo Airport


Codes: FNCF/CFF
Name: Cafunfo Airport
City: Cafunfo
Country: Angola
Elevation: 0 ft.

Photos at Cafunfo Airport


   Photos courtesy of SpottingLog. You can add your own sightings and photos by signing up for a free trial today.



No photos found.

Weather at Cafunfo Airport


Time (UTC)DescriptionTempratureWindCloud coverageVisibilityPressureHumidity
16-Jun-2024 00:00Broken Clouds16°C4 mph, SE75%10000m1014hPa33%
16-Jun-2024 03:00Broken Clouds15°C4 mph, SE83%10000m1014hPa34%
16-Jun-2024 06:00Overcast Clouds16°C4 mph, SE92%10000m1015hPa35%
16-Jun-2024 09:00Overcast Clouds28°C9 mph, SE100%10000m1014hPa16%
16-Jun-2024 12:00Overcast Clouds32°C4 mph, SE97%10000m1010hPa11%
16-Jun-2024 15:00Broken Clouds31°C2 mph, S78%10000m1009hPa11%
16-Jun-2024 18:00Overcast Clouds21°C2 mph, S89%10000m1012hPa20%
16-Jun-2024 21:00Overcast Clouds19°C4 mph, SE100%10000m1014hPa23%
17-Jun-2024 00:00Overcast Clouds17°C4 mph, SE100%10000m1014hPa26%
17-Jun-2024 03:00Overcast Clouds15°C4 mph, SE100%10000m1015hPa31%
17-Jun-2024 06:00Overcast Clouds16°C2 mph, SE97%10000m1017hPa33%
17-Jun-2024 09:00Broken Clouds29°C4 mph, SE73%10000m1015hPa15%
17-Jun-2024 12:00Overcast Clouds33°C4 mph, SE87%10000m1011hPa11%
17-Jun-2024 15:00Overcast Clouds31°C2 mph, S100%10000m1009hPa14%
17-Jun-2024 18:00Overcast Clouds22°C4 mph, S100%10000m1012hPa22%
17-Jun-2024 21:00Overcast Clouds19°C2 mph, SE90%10000m1014hPa25%
18-Jun-2024 00:00Overcast Clouds17°C4 mph, SE85%10000m1013hPa26%
18-Jun-2024 03:00Few Clouds15°C4 mph, SE24%10000m1014hPa30%
18-Jun-2024 06:00Few Clouds16°C2 mph, SE12%10000m1015hPa32%
18-Jun-2024 09:00Clear Sky30°C2 mph, E0%10000m1014hPa16%
18-Jun-2024 12:00Clear Sky36°C0 mph, NE0%10000m1010hPa11%
18-Jun-2024 15:00Clear Sky34°C2 mph, W1%10000m1008hPa11%
18-Jun-2024 18:00Clear Sky23°C2 mph, SW0%10000m1011hPa23%
18-Jun-2024 21:00Clear Sky20°C2 mph, E0%10000m1013hPa26%
19-Jun-2024 00:00Clear Sky18°C4 mph, SE0%10000m1013hPa27%
19-Jun-2024 03:00Clear Sky16°C4 mph, SE3%10000m1012hPa28%
19-Jun-2024 06:00Few Clouds17°C2 mph, SE21%10000m1014hPa32%
19-Jun-2024 09:00Broken Clouds30°C2 mph, E68%10000m1014hPa16%
19-Jun-2024 12:00Broken Clouds36°C2 mph, N55%10000m1009hPa12%
19-Jun-2024 15:00Scattered Clouds34°C2 mph, W41%10000m1007hPa12%
19-Jun-2024 18:00Scattered Clouds23°C2 mph, S33%10000m1011hPa23%
19-Jun-2024 21:00Scattered Clouds20°C2 mph, E36%10000m1013hPa26%
20-Jun-2024 00:00Scattered Clouds19°C4 mph, SE40%10000m1012hPa26%
20-Jun-2024 03:00Broken Clouds17°C4 mph, E59%10000m1012hPa31%
20-Jun-2024 06:00Scattered Clouds18°C2 mph, SE47%10000m1014hPa31%
20-Jun-2024 09:00Scattered Clouds31°C2 mph, E41%10000m1013hPa16%
20-Jun-2024 12:00Broken Clouds37°C0 mph, NE53%10000m1009hPa11%
20-Jun-2024 15:00Scattered Clouds35°C0 mph, SW50%10000m1006hPa11%
20-Jun-2024 18:00Scattered Clouds24°C2 mph, SW50%10000m1010hPa23%
20-Jun-2024 21:00Few Clouds21°C2 mph, SE15%10000m1012hPa25%